Time;durP1;ratioP1;P1;durP2;ratioP2;P2;SDS_P1;SDS_P2;PMS_P1;PMS_P2;Temp;Humidity;BMP_temperature;BMP_pressure;BME280_temperature;BME280_humidity;BME280_pressure;Samples;Min_cycle;Max_cycle;Signal;HPM_P1;HPM_P2
2022/01/14 00:01:39;;;;;;;12.05;4.70;;;;;;;1.98;92.98;103745.34;5117453;28;20028;-85
2022/01/14 00:04:05;;;;;;;14.20;5.28;;;;;;;1.93;93.64;103750.94;5116994;28;20026;-86
2022/01/14 00:06:39;;;;;;;16.92;6.55;;;;;;;1.93;93.36;103759.50;5116251;28;20023;-86
2022/01/14 00:09:07;;;;;;;16.15;6.32;;;;;;;1.94;93.58;103762.97;5117030;28;20456;-85
2022/01/14 00:11:41;;;;;;;15.60;5.85;;;;;;;1.93;93.58;103762.06;5116967;28;20019;-85
2022/01/14 00:14:22;;;;;;;14.60;5.80;;;;;;;1.90;93.52;103758.41;5112590;28;20042;-85
2022/01/14 00:16:48;;;;;;;13.65;5.03;;;;;;;1.93;93.18;103764.63;5110112;28;20099;-86
2022/01/14 00:19:14;;;;;;;14.27;5.38;;;;;;;1.94;93.00;103758.72;5095308;28;20059;-86
2022/01/14 00:21:41;;;;;;;12.10;4.78;;;;;;;1.92;93.23;103759.41;5096644;28;20031;-86
2022/01/14 00:24:12;;;;;;;9.30;4.28;;;;;;;1.96;93.27;103752.03;5096493;28;20077;-86
2022/01/14 00:32:23;;;;;;;15.88;6.25;;;;;;;1.88;93.36;103744.59;5058595;28;20133;-86
2022/01/14 00:34:48;;;;;;;14.38;5.40;;;;;;;1.84;93.35;103730.72;5095622;28;20031;-86
2022/01/14 00:37:16;;;;;;;11.68;4.78;;;;;;;1.85;93.11;103737.59;5095552;28;20114;-85
2022/01/14 00:39:41;;;;;;;12.77;5.40;;;;;;;1.85;93.24;103735.97;5096171;28;20028;-85
2022/01/14 00:42:07;;;;;;;12.45;4.97;;;;;;;1.81;92.80;103725.38;5098335;28;20036;-86
2022/01/14 00:44:33;;;;;;;12.50;5.20;;;;;;;1.87;93.18;103732.56;5100916;28;20020;-86
2022/01/14 00:47:01;;;;;;;11.57;4.63;;;;;;;1.81;93.18;103710.91;5115525;28;20277;-86
2022/01/14 00:49:26;;;;;;;12.63;4.80;;;;;;;1.86;92.94;103716.34;5115888;28;20034;-85
2022/01/14 00:51:52;;;;;;;13.02;5.07;;;;;;;1.85;93.08;103714.56;5116045;28;20020;-86
2022/01/14 00:54:18;;;;;;;11.00;4.35;;;;;;;1.82;93.00;103710.13;5115375;28;20474;-85
2022/01/14 00:57:14;;;;;;;11.25;4.60;;;;;;;1.78;92.97;103692.78;5115767;28;20487;-85
2022/01/14 00:59:40;;;;;;;11.52;4.68;;;;;;;1.80;93.05;103698.00;5115814;28;20039;-86
2022/01/14 01:02:05;;;;;;;10.63;4.43;;;;;;;1.80;92.85;103698.88;5115060;28;20015;-85
2022/01/14 01:04:39;;;;;;;10.30;4.70;;;;;;;1.75;92.94;103678.88;5116212;28;20023;-86
2022/01/14 01:07:07;;;;;;;10.60;4.40;;;;;;;1.77;93.02;103685.00;5115861;28;20028;-85
2022/01/14 01:09:33;;;;;;;10.88;4.70;;;;;;;1.70;93.25;103676.88;5115080;28;20028;-85
2022/01/14 01:12:30;;;;;;;10.90;4.35;;;;;;;1.74;92.98;103688.25;5115721;28;20023;-86
2022/01/14 01:15:06;;;;;;;11.48;4.88;;;;;;;1.73;93.55;103683.00;5107074;28;20020;-84
2022/01/14 01:17:33;;;;;;;13.52;5.45;;;;;;;1.70;93.25;103692.25;5095009;28;20042;-85
2022/01/14 01:19:59;;;;;;;10.40;4.38;;;;;;;1.68;92.96;103683.59;5095451;28;20082;-86
2022/01/14 01:22:24;;;;;;;11.38;4.57;;;;;;;1.66;93.12;103674.03;5094488;28;20119;-86
2022/01/14 01:24:49;;;;;;;10.50;4.80;;;;;;;1.65;93.46;103683.38;5095271;28;20052;-86
2022/01/14 01:27:17;;;;;;;16.55;6.97;;;;;;;1.61;92.64;103676.28;5094686;28;20025;-85
2022/01/14 01:29:49;;;;;;;15.30;5.97;;;;;;;1.57;93.21;103676.88;5094328;28;20028;-86
2022/01/14 01:32:15;;;;;;;14.70;5.90;;;;;;;1.54;93.34;103680.09;5094605;28;20043;-86
2022/01/14 01:34:40;;;;;;;13.88;5.55;;;;;;;1.57;93.09;103684.56;5095270;28;20461;-86
2022/01/14 01:37:06;;;;;;;10.77;4.65;;;;;;;1.58;93.12;103676.06;5094058;28;20013;-85
2022/01/14 01:39:34;;;;;;;9.98;4.40;;;;;;;1.60;93.13;103683.88;5101561;28;20083;-85
2022/01/14 01:42:05;;;;;;;8.65;3.90;;;;;;;1.59;93.14;103672.72;5113568;28;20043;-85
2022/01/14 01:44:31;;;;;;;7.28;3.50;;;;;;;1.62;92.63;103678.06;5114315;28;20020;-86
2022/01/14 01:46:57;;;;;;;10.93;4.97;;;;;;;1.59;93.12;103675.28;5115364;28;20027;-86
2022/01/14 01:49:27;;;;;;;14.13;5.63;;;;;;;1.56;93.47;103680.22;5114718;28;20099;-85
2022/01/14 01:51:53;;;;;;;13.60;5.80;;;;;;;1.54;92.52;103682.66;5114527;28;20103;-86
2022/01/14 01:54:20;;;;;;;13.43;5.60;;;;;;;1.53;93.26;103674.88;5114620;28;20023;-86
2022/01/14 01:56:45;;;;;;;11.05;4.75;;;;;;;1.51;93.01;103679.91;5114778;28;20164;-86
2022/01/14 01:59:12;;;;;;;10.48;4.60;;;;;;;1.54;93.24;103674.97;5113817;28;20436;-85
2022/01/14 02:01:38;;;;;;;10.95;4.95;;;;;;;1.53;92.98;103677.44;5115095;28;20027;-85
2022/01/14 02:04:03;;;;;;;12.13;5.15;;;;;;;1.53;93.07;103680.88;5115213;28;20379;-85
2022/01/14 02:06:29;;;;;;;10.32;4.63;;;;;;;1.55;93.18;103678.44;5113918;28;20026;-85
2022/01/14 02:08:54;;;;;;;8.43;3.88;;;;;;;1.52;92.98;103665.41;5114220;28;20039;-85
2022/01/14 02:11:20;;;;;;;8.93;4.10;;;;;;;1.57;92.65;103679.44;5112900;28;20023;-85
2022/01/14 02:13:45;;;;;;;6.35;3.33;;;;;;;1.57;93.01;103669.19;5113441;28;20035;-85
2022/01/14 02:16:19;;;;;;;6.72;3.30;;;;;;;1.57;92.69;103668.28;5114416;28;20155;-85
2022/01/14 02:19:15;;;;;;;7.78;3.50;;;;;;;1.55;92.70;103663.06;5113792;28;20459;-85
2022/01/14 02:24:54;;;;;;;7.25;3.28;;;;;;;1.52;92.73;103661.16;5114759;28;20042;-85
2022/01/14 02:27:17;;;;;;;6.38;3.22;;;;;;;1.51;92.78;103649.19;5113466;28;20028;-85
2022/01/14 02:29:43;;;;;;;6.40;3.30;;;;;;;1.50;92.84;103655.09;5114477;28;20031;-85
2022/01/14 02:32:09;;;;;;;4.82;2.97;;;;;;;1.47;92.87;103643.72;5104275;28;20024;-85
2022/01/14 02:34:39;;;;;;;5.22;2.90;;;;;;;1.51;92.86;103648.28;5093063;28;20422;-85
2022/01/14 02:37:06;;;;;;;7.43;3.20;;;;;;;1.47;92.57;103638.59;5093971;28;20024;-85
2022/01/14 02:39:31;;;;;;;6.65;3.30;;;;;;;1.52;92.74;103650.06;5092759;28;20093;-85
2022/01/14 02:42:00;;;;;;;6.90;3.47;;;;;;;1.52;92.77;103650.94;5110946;28;20027;-86
2022/01/14 02:44:27;;;;;;;5.80;2.90;;;;;;;1.44;92.62;103646.09;5113636;28;20059;-86
2022/01/14 02:47:03;;;;;;;6.05;3.25;;;;;;;1.43;92.70;103636.66;5113368;28;20019;-85
2022/01/14 02:49:31;;;;;;;5.05;3.00;;;;;;;1.47;92.43;103654.88;5113834;28;20091;-85
2022/01/14 02:51:58;;;;;;;6.20;3.03;;;;;;;1.48;92.44;103643.84;5114127;28;20113;-85
2022/01/14 02:54:32;;;;;;;8.57;4.10;;;;;;;1.43;92.38;103634.97;5113098;28;20030;-85
2022/01/14 02:56:58;;;;;;;7.75;3.75;;;;;;;1.42;92.75;103638.31;5111679;28;20444;-85
2022/01/14 02:59:25;;;;;;;7.43;3.53;;;;;;;1.41;92.39;103638.22;5108127;28;20027;-86
2022/01/14 03:01:50;;;;;;;7.40;3.60;;;;;;;1.36;92.30;103625.97;5092604;28;20480;-85
2022/01/14 03:04:19;;;;;;;9.07;4.05;;;;;;;1.34;92.62;103624.09;5098504;28;20102;-85
2022/01/14 03:06:45;;;;;;;9.38;4.38;;;;;;;1.35;92.34;103637.00;5112058;28;20035;-86
2022/01/14 03:09:10;;;;;;;7.28;3.53;;;;;;;1.35;92.37;103633.56;5107353;28;20031;-86
2022/01/14 03:11:43;;;;;;;7.70;3.80;;;;;;;1.37;92.54;103640.56;5093157;28;20100;-85
2022/01/14 03:14:09;;;;;;;6.15;3.10;;;;;;;1.38;92.52;103642.34;5093059;28;20503;-85
2022/01/14 03:16:44;;;;;;;6.45;3.60;;;;;;;1.30;92.51;103637.47;5092824;28;20043;-86
2022/01/14 03:19:17;;;;;;;7.65;3.67;;;;;;;1.31;92.18;103637.59;5093216;28;20028;-85
2022/01/14 03:21:43;;;;;;;6.50;3.30;;;;;;;1.33;92.42;103648.81;5092594;28;20020;-86
2022/01/14 03:26:54;;;;;;;5.20;3.00;;;;;;;1.30;92.87;103640.03;5093405;28;20416;-85
2022/01/14 03:29:19;;;;;;;5.97;3.03;;;;;;;1.30;92.48;103629.78;5092193;28;20040;-85
2022/01/14 03:31:46;;;;;;;5.25;2.85;;;;;;;1.35;92.47;103634.44;5092954;28;20028;-86
2022/01/14 03:34:13;;;;;;;4.97;2.85;;;;;;;1.37;92.74;103632.88;5106280;28;20388;-85
2022/01/14 03:36:48;;;;;;;3.65;2.38;;;;;;;1.33;92.42;103619.78;5111945;28;20531;-86
2022/01/14 03:39:19;;;;;;;5.65;3.00;;;;;;;1.36;92.75;103625.97;5112806;28;20024;-86
2022/01/14 03:42:00;;;;;;;4.15;2.70;;;;;;;1.42;92.48;103637.44;5112913;28;20035;-86
2022/01/14 03:44:27;;;;;;;6.95;3.13;;;;;;;1.36;92.42;103632.78;5112568;28;20408;-86
2022/01/14 03:46:53;;;;;;;4.72;3.00;;;;;;;1.36;92.47;103633.66;5113376;28;20525;-85
2022/01/14 03:49:18;;;;;;;5.15;2.72;;;;;;;1.35;92.25;103628.44;5112742;28;20051;-85
2022/01/14 03:51:43;;;;;;;5.25;2.80;;;;;;;1.33;92.30;103627.44;5112495;28;20034;-85
2022/01/14 03:54:18;;;;;;;4.53;2.60;;;;;;;1.32;92.31;103624.03;5113221;28;20068;-86
2022/01/14 03:57:08;;;;;;;4.53;2.80;;;;;;;1.38;92.50;103636.34;5112058;28;20044;-85
2022/01/14 03:59:33;;;;;;;4.43;2.65;;;;;;;1.36;91.98;103630.22;5112806;28;20043;-85
2022/01/14 04:02:01;;;;;;;3.60;2.30;;;;;;;1.37;92.20;103630.31;5113342;28;20027;-85
2022/01/14 04:04:26;;;;;;;3.65;2.40;;;;;;;1.34;92.40;103627.56;5111461;28;20019;-85
2022/01/14 04:06:52;;;;;;;3.85;2.25;;;;;;;1.38;92.45;103628.66;5112895;28;20073;-85
2022/01/14 04:09:17;;;;;;;3.90;2.42;;;;;;;1.38;92.17;103615.88;5112975;28;20058;-86
2022/01/14 04:11:44;;;;;;;3.78;2.38;;;;;;;1.43;92.49;103623.84;5112391;28;20043;-85
2022/01/14 04:16:50;;;;;;;3.80;2.58;;;;;;;1.37;92.17;103617.53;5112886;28;20028;-86
2022/01/14 04:19:15;;;;;;;4.65;2.53;;;;;;;1.36;92.05;103625.97;5112001;28;20031;-85
2022/01/14 04:21:40;;;;;;;5.38;3.20;;;;;;;1.31;92.38;103616.22;5113132;28;20043;-86
2022/01/14 04:24:06;;;;;;;5.45;3.22;;;;;;;1.29;92.19;103615.25;5112735;28;20455;-85
2022/01/14 04:26:31;;;;;;;6.95;3.67;;;;;;;1.33;92.31;103615.56;5112507;28;20038;-85
2022/01/14 04:29:11;;;;;;;7.88;3.80;;;;;;;1.21;92.44;103605.38;5112207;28;20106;-85
2022/01/14 04:31:37;;;;;;;7.47;3.85;;;;;;;1.22;92.49;103608.81;5102100;28;20034;-86
2022/01/14 04:34:02;;;;;;;7.20;3.65;;;;;;;1.16;92.16;103606.75;5093512;28;20020;-85
2022/01/14 04:36:44;;;;;;;6.43;3.30;;;;;;;1.19;92.36;103617.16;5095901;28;20469;-85
2022/01/14 04:39:10;;;;;;;5.57;3.00;;;;;;;1.19;92.36;103618.84;5095371;28;20152;-85
2022/01/14 04:41:36;;;;;;;5.05;3.05;;;;;;;1.19;92.46;103618.84;5096079;28;20067;-85
2022/01/14 04:44:01;;;;;;;5.78;3.17;;;;;;;1.17;92.47;103597.38;5096267;28;20022;-86
2022/01/14 04:49:01;;;;;;;5.40;2.80;;;;;;;1.20;92.07;103592.47;5096203;28;20029;-85
2022/01/14 04:51:27;;;;;;;8.63;4.03;;;;;;;1.16;92.38;103587.94;5095588;28;20028;-86
2022/01/14 04:53:52;;;;;;;6.95;3.42;;;;;;;1.11;92.65;103589.31;5095415;28;20039;-85
2022/01/14 04:56:17;;;;;;;6.43;3.28;;;;;;;1.18;92.35;103594.03;5095012;28;20040;-85
2022/01/14 04:58:43;;;;;;;5.63;3.30;;;;;;;1.15;92.61;103576.81;5095513;28;20028;-86
2022/01/14 05:01:20;;;;;;;5.82;3.10;;;;;;;1.18;92.44;103577.00;5100512;28;20039;-85
2022/01/14 05:03:45;;;;;;;5.25;3.03;;;;;;;1.18;92.33;103563.34;5115882;28;20524;-85
2022/01/14 05:06:11;;;;;;;5.65;3.13;;;;;;;1.22;92.13;103568.75;5115597;28;20027;-85
2022/01/14 05:08:39;;;;;;;5.18;2.85;;;;;;;1.21;92.33;103561.00;5115383;28;20020;-85
2022/01/14 05:13:41;;;;;;;4.60;2.53;;;;;;;1.15;92.18;103558.91;5115671;28;20024;-86
2022/01/14 05:16:07;;;;;;;4.13;2.55;;;;;;;1.14;92.36;103559.69;5106423;28;20028;-85
2022/01/14 05:18:32;;;;;;;3.80;2.33;;;;;;;1.14;92.30;103558.78;5095346;28;20297;-85
2022/01/14 05:20:57;;;;;;;4.90;2.95;;;;;;;1.09;92.22;103555.94;5095475;28;20024;-85
2022/01/14 05:23:33;;;;;;;5.10;2.78;;;;;;;1.09;92.60;103555.94;5094204;28;20020;-85
2022/01/14 05:25:59;;;;;;;4.55;2.83;;;;;;;1.08;92.41;103556.72;5095626;28;20016;-86
2022/01/14 05:28:24;;;;;;;4.95;2.90;;;;;;;1.13;92.54;103568.16;5094358;28;20134;-86
2022/01/14 05:30:50;;;;;;;5.70;3.00;;;;;;;1.13;92.59;103564.69;5094915;28;20118;-85
2022/01/14 05:33:16;;;;;;;5.68;3.00;;;;;;;1.12;92.06;103562.94;5094711;28;20085;-85
2022/01/14 05:35:53;;;;;;;6.95;3.30;;;;;;;1.11;92.24;103561.16;5094536;28;20430;-85
2022/01/14 05:38:18;;;;;;;6.03;3.20;;;;;;;1.06;92.44;103564.28;5094971;28;20020;-86
2022/01/14 05:40:53;;;;;;;6.95;3.60;;;;;;;1.06;92.28;103563.41;5094670;28;20047;-85
2022/01/14 05:43:18;;;;;;;5.82;3.25;;;;;;;0.96;92.43;103556.78;5094110;28;20032;-86
2022/01/14 05:45:43;;;;;;;5.95;3.35;;;;;;;0.99;92.12;103551.88;5093585;28;20096;-86
2022/01/14 05:48:08;;;;;;;6.38;3.30;;;;;;;0.95;92.09;103552.44;5094597;28;20107;-85
2022/01/14 05:50:34;;;;;;;5.97;3.22;;;;;;;0.90;92.47;103546.16;5094206;28;20024;-85
2022/01/14 05:53:09;;;;;;;8.00;4.20;;;;;;;0.84;92.56;103538.94;5093821;28;20031;-85
2022/01/14 05:55:34;;;;;;;9.77;4.10;;;;;;;0.84;92.65;103546.63;5094298;28;20078;-85
2022/01/14 05:57:59;;;;;;;7.15;3.60;;;;;;;0.85;92.24;103558.59;5093484;28;20075;-85
2022/01/14 06:00:24;;;;;;;7.50;3.80;;;;;;;0.86;92.35;103552.69;5094381;28;20020;-85
2022/01/14 06:02:50;;;;;;;5.80;3.20;;;;;;;0.87;92.04;103551.03;5094430;28;20020;-85
2022/01/14 06:05:17;;;;;;;6.65;3.50;;;;;;;0.91;92.46;103553.00;5093811;28;20024;-85
2022/01/14 06:07:48;;;;;;;5.65;3.22;;;;;;;0.86;92.18;103539.03;5072363;28;20051;-85
2022/01/14 06:10:14;;;;;;;6.60;3.50;;;;;;;0.87;92.01;103551.03;5093958;28;20499;-85
2022/01/14 06:12:39;;;;;;;5.93;3.40;;;;;;;0.89;92.47;103557.16;5093644;28;20028;-85
2022/01/14 06:15:06;;;;;;;5.68;3.20;;;;;;;0.84;92.40;103571.28;5094202;28;20023;-85
2022/01/14 06:17:37;;;;;;;4.50;2.78;;;;;;;0.80;92.42;103566.72;5093538;28;20380;-85
2022/01/14 06:20:04;;;;;;;5.40;2.83;;;;;;;0.83;92.18;103575.50;5093867;28;20442;-84
2022/01/14 06:22:29;;;;;;;5.00;2.90;;;;;;;0.78;92.15;103571.75;5093740;28;20522;-85
2022/01/14 06:24:56;;;;;;;4.85;2.85;;;;;;;0.83;92.24;103582.28;5093004;28;20048;-85
2022/01/14 06:27:34;;;;;;;6.38;3.38;;;;;;;0.82;92.33;103580.50;5093761;28;20494;-85
2022/01/14 06:30:00;;;;;;;4.72;2.92;;;;;;;0.78;92.25;103571.75;5093958;28;20047;-85
2022/01/14 06:32:25;;;;;;;4.82;2.90;;;;;;;0.79;92.26;103557.31;5093116;28;20035;-85
2022/01/14 06:34:51;;;;;;;4.97;2.80;;;;;;;0.76;92.54;103556.31;5093680;28;20028;-85
2022/01/14 06:37:31;;;;;;;4.57;2.75;;;;;;;0.79;92.10;103565.84;5093850;28;20161;-85
2022/01/14 06:39:56;;;;;;;6.57;3.30;;;;;;;0.75;92.18;103566.41;5117354;22;20204;-85
2022/01/14 06:42:21;;;;;;;5.25;3.00;;;;;;;0.74;92.03;103565.53;5093384;28;20039;-85
2022/01/14 06:44:46;;;;;;;4.60;2.92;;;;;;;0.73;92.21;103558.63;5093510;28;20063;-85
2022/01/14 06:47:12;;;;;;;5.55;3.00;;;;;;;0.69;91.76;103559.19;5093160;28;20032;-86
2022/01/14 06:49:37;;;;;;;4.45;2.90;;;;;;;0.67;92.07;103563.34;5093467;28;20069;-86
2022/01/14 06:52:02;;;;;;;5.03;3.00;;;;;;;0.66;91.92;103559.00;5092112;28;20020;-86
2022/01/14 06:54:28;;;;;;;5.30;3.00;;;;;;;0.65;92.23;103557.22;5092588;28;20047;-86
2022/01/14 06:56:53;;;;;;;4.03;2.80;;;;;;;0.68;92.18;103565.09;5093008;28;20449;-86
2022/01/14 06:59:18;;;;;;;4.47;2.80;;;;;;;0.64;91.99;103557.09;5093240;28;20114;-86
2022/01/14 07:01:44;;;;;;;3.83;2.70;;;;;;;0.67;91.87;103553.13;5093087;28;20024;-86
2022/01/14 07:04:10;;;;;;;4.60;2.70;;;;;;;0.72;92.06;103556.00;5092805;28;20032;-86
2022/01/14 07:06:50;;;;;;;3.45;2.50;;;;;;;0.74;92.14;103562.06;5092216;28;20024;-85
2022/01/14 07:09:15;;;;;;;3.75;2.33;;;;;;;0.73;91.78;103563.75;5093020;28;20039;-86
2022/01/14 07:11:40;;;;;;;4.15;2.50;;;;;;;0.73;92.32;103566.31;5093563;28;20032;-86
2022/01/14 07:14:06;;;;;;;4.70;2.70;;;;;;;0.74;91.85;103564.63;5091645;28;20028;-86
2022/01/14 07:16:47;;;;;;;3.75;2.50;;;;;;;0.77;92.05;103569.97;5091209;28;20028;-86
2022/01/14 07:19:13;;;;;;;4.10;2.50;;;;;;;0.74;92.30;103564.63;5093161;28;20024;-87
2022/01/14 07:21:39;;;;;;;4.38;2.70;;;;;;;0.74;92.21;103562.97;5093113;28;20055;-86
2022/01/14 07:24:06;;;;;;;3.95;2.47;;;;;;;0.79;91.96;103573.50;5093038;28;20035;-86
2022/01/14 07:26:46;;;;;;;5.35;2.67;;;;;;;0.72;91.90;103577.31;5091548;28;20024;-87
2022/01/14 07:29:13;;;;;;;5.40;3.10;;;;;;;0.63;92.25;103566.44;5092580;28;20027;-84
2022/01/14 07:31:38;;;;;;;3.65;2.53;;;;;;;0.65;91.94;103574.22;5092846;28;20476;-83
2022/01/14 07:34:03;;;;;;;5.53;3.17;;;;;;;0.68;91.97;103572.75;5092941;28;20016;-84
2022/01/14 07:36:28;;;;;;;4.88;2.88;;;;;;;0.69;92.06;103577.09;5091804;28;20028;-84
2022/01/14 07:38:54;;;;;;;5.80;2.97;;;;;;;0.68;92.24;103577.88;5092797;28;20557;-84
2022/01/14 07:41:19;;;;;;;5.63;3.20;;;;;;;0.67;92.02;103590.56;5092856;28;20032;-83
2022/01/14 07:43:47;;;;;;;4.80;3.00;;;;;;;0.62;91.82;103592.78;5092269;28;20388;-84
2022/01/14 07:46:13;;;;;;;5.55;3.20;;;;;;;0.64;91.85;103581.00;5092589;28;20028;-83
2022/01/14 07:48:44;;;;;;;6.88;3.35;;;;;;;0.57;92.34;103576.22;5092821;28;20438;-84
2022/01/14 07:51:10;;;;;;;8.55;4.07;;;;;;;0.53;92.35;103580.25;5079329;28;20111;-83
2022/01/14 07:53:36;;;;;;;9.00;4.22;;;;;;;0.57;92.28;103582.25;5072611;28;20134;-83
2022/01/14 07:56:05;;;;;;;9.48;4.47;;;;;;;0.53;92.32;103577.69;5071801;28;20472;-84
2022/01/14 07:58:30;;;;;;;10.02;4.65;;;;;;;0.50;92.13;103584.25;5072722;28;20024;-83
2022/01/14 08:00:56;;;;;;;8.60;4.38;;;;;;;0.48;92.27;103589.28;5091348;28;20024;-84
2022/01/14 08:03:21;;;;;;;8.05;3.78;;;;;;;0.48;92.32;103580.69;5091622;28;20027;-86
2022/01/14 08:05:49;;;;;;;6.15;3.33;;;;;;;0.56;92.12;103580.47;5093129;28;20082;-87
2022/01/14 08:08:14;;;;;;;6.88;3.40;;;;;;;0.58;92.21;103578.91;5093358;28;20434;-87
2022/01/14 08:10:40;;;;;;;6.03;3.38;;;;;;;0.60;91.93;103574.81;5103974;22;20082;-90
2022/01/14 08:13:05;;;;;;;4.75;2.92;;;;;;;0.60;91.96;103568.78;5116449;28;20070;-80
2022/01/14 08:15:31;;;;;;;5.82;3.22;;;;;;;0.58;92.19;103562.69;5116529;28;20076;-82
2022/01/14 08:17:59;;;;;;;7.07;3.40;;;;;;;0.59;92.43;103562.81;5114774;28;20023;-88
2022/01/14 08:20:25;;;;;;;7.05;3.60;;;;;;;0.64;92.04;103560.56;5116901;28;20047;-88
2022/01/14 08:22:50;;;;;;;7.25;3.90;;;;;;;0.64;92.68;103562.22;5098522;28;20095;-88
2022/01/14 08:25:15;;;;;;;9.27;4.20;;;;;;;0.62;91.90;103569.78;5115636;28;20086;-88
2022/01/14 08:27:40;;;;;;;10.43;4.57;;;;;;;0.58;91.86;103566.13;5117196;28;20062;-87
2022/01/14 08:30:09;;;;;;;9.48;4.40;;;;;;;0.55;92.23;103565.91;5116901;28;20027;-87
2022/01/14 08:32:38;;;;;;;9.95;4.20;;;;;;;0.55;92.18;103593.16;5116067;28;20019;-88
2022/01/14 08:35:03;;;;;;;9.93;4.45;;;;;;;0.50;92.46;103581.72;5116849;28;20032;-88
2022/01/14 08:37:29;;;;;;;9.50;4.22;;;;;;;0.51;92.15;103581.81;5116192;28;20030;-87
2022/01/14 08:39:55;;;;;;;11.30;4.80;;;;;;;0.50;92.04;103579.16;5115800;28;20062;-87
2022/01/14 08:42:20;;;;;;;8.83;3.93;;;;;;;0.47;92.23;103567.06;5116246;28;20024;-87
2022/01/14 08:44:55;;;;;;;8.10;3.90;;;;;;;0.48;92.41;103581.59;5100376;28;20024;-86
2022/01/14 08:47:20;;;;;;;8.95;3.80;;;;;;;0.53;92.27;103589.59;5106695;28;20467;-89
2022/01/14 08:49:45;;;;;;;6.75;3.33;;;;;;;0.59;92.38;103582.34;5116150;28;20023;-85
2022/01/14 08:52:13;;;;;;;7.28;3.63;;;;;;;0.67;92.51;103575.22;5115412;28;20072;-85
2022/01/14 08:54:39;;;;;;;8.32;4.15;;;;;;;0.72;91.99;103591.78;5116169;27;20468;-85
2022/01/14 08:57:04;;;;;;;9.68;4.50;;;;;;;0.72;92.04;103572.19;5115573;28;20172;-84
2022/01/14 08:59:31;;;;;;;8.88;4.13;;;;;;;0.75;91.85;103576.63;5115333;28;20076;-86
2022/01/14 09:01:57;;;;;;;8.88;4.20;;;;;;;0.79;92.17;103567.53;5115845;28;20544;-86
2022/01/14 09:04:23;;;;;;;6.70;3.45;;;;;;;0.81;92.23;103561.72;5115918;28;20023;-85
2022/01/14 09:06:48;;;;;;;7.78;3.80;;;;;;;0.85;92.31;103586.72;5115263;28;20030;-86
2022/01/14 09:09:14;;;;;;;6.25;3.30;;;;;;;0.88;92.49;103578.38;5115796;28;20051;-86
2022/01/14 09:11:39;;;;;;;7.63;3.97;;;;;;;0.89;92.37;103581.03;5113793;28;20122;-86
2022/01/14 09:14:05;;;;;;;7.57;3.70;;;;;;;0.89;92.12;103567.38;5114638;28;20391;-85
2022/01/14 09:16:30;;;;;;;6.43;3.50;;;;;;;0.92;92.04;103583.81;5115567;28;20068;-86
2022/01/14 09:18:55;;;;;;;6.82;3.63;;;;;;;0.97;92.24;103558.56;5115603;28;20512;-86
2022/01/14 09:21:20;;;;;;;8.70;4.40;;;;;;;0.97;92.07;103573.91;5114669;28;20036;-87
2022/01/14 09:24:02;;;;;;;7.82;3.90;;;;;;;0.96;91.95;103578.91;5115765;28;20384;-86
2022/01/14 09:26:28;;;;;;;8.10;3.80;;;;;;;0.99;92.00;103574.00;5115342;28;20468;-87
2022/01/14 09:28:53;;;;;;;7.20;3.50;;;;;;;1.05;92.59;103572.75;5115709;28;20065;-93
2022/01/14 09:31:18;;;;;;;5.97;3.00;;;;;;;1.11;92.68;103568.84;5110718;28;20483;-89
2022/01/14 09:33:43;;;;;;;6.50;3.38;;;;;;;1.15;92.09;103574.25;5112447;28;20031;-87
2022/01/14 09:36:09;;;;;;;6.50;3.42;;;;;;;1.17;92.52;103574.34;5115591;28;20020;-88
2022/01/14 09:38:34;;;;;;;6.75;3.40;;;;;;;1.19;92.41;103589.03;5114144;28;20049;-94
2022/01/14 09:41:00;;;;;;;6.53;3.28;;;;;;;1.22;92.72;103593.47;5097736;28;20452;-88
2022/01/14 09:43:26;;;;;;;6.75;3.40;;;;;;;1.19;91.94;103576.22;5116005;28;20039;-92
2022/01/14 09:45:52;;;;;;;5.32;3.03;;;;;;;1.23;92.24;103590.13;5114840;28;20035;-88
2022/01/14 09:48:17;;;;;;;6.00;3.40;;;;;;;1.26;92.46;103604.81;5115955;28;20012;-88
2022/01/14 09:50:44;;;;;;;6.00;3.30;;;;;;;1.21;92.49;103594.25;5112989;28;20085;-88
2022/01/14 09:53:26;;;;;;;5.07;2.95;;;;;;;1.28;91.95;103603.25;5115144;28;20027;-88
2022/01/14 09:55:52;;;;;;;4.32;2.70;;;;;;;1.30;92.34;103601.66;5115178;28;20034;-88
2022/01/14 09:58:18;;;;;;;4.68;2.70;;;;;;;1.33;92.41;103604.41;5114398;28;20050;-88
2022/01/14 10:00:57;;;;;;;5.82;3.33;;;;;;;1.35;92.31;103601.16;5095291;28;20094;-88
2022/01/14 10:03:25;;;;;;;7.10;3.35;;;;;;;1.35;91.96;103597.75;5094287;28;20024;-88
2022/01/14 10:05:55;;;;;;;7.18;3.60;;;;;;;1.35;92.02;103595.19;5094734;28;20101;-89
2022/01/14 10:08:35;;;;;;;5.22;2.97;;;;;;;1.39;92.03;103600.59;5094849;28;20028;-88
2022/01/14 10:11:02;;;;;;;5.55;2.95;;;;;;;1.44;92.39;103607.72;5099999;22;20422;-88
2022/01/14 10:13:32;;;;;;;5.63;3.13;;;;;;;1.50;92.39;103613.22;5084896;28;20400;-88
2022/01/14 10:16:07;;;;;;;5.95;3.33;;;;;;;1.53;92.21;103613.44;5094401;28;20033;-88
2022/01/14 10:18:42;;;;;;;7.03;3.60;;;;;;;1.54;92.02;103610.09;5079806;28;20016;-88
2022/01/14 10:21:08;;;;;;;7.85;3.50;;;;;;;1.56;92.19;103608.53;5074132;28;20397;-88
2022/01/14 10:23:59;;;;;;;8.20;3.73;;;;;;;1.58;92.24;103601.81;5073528;28;20029;-88
2022/01/14 10:26:26;;;;;;;6.82;3.58;;;;;;;1.67;92.16;103607.56;5073369;28;20626;-88
2022/01/14 10:29:01;;;;;;;6.65;3.35;;;;;;;1.68;92.01;103605.88;5074061;28;20031;-88
2022/01/14 10:31:39;;;;;;;8.00;3.70;;;;;;;1.70;92.00;103606.88;5072614;28;20029;-87
2022/01/14 10:34:15;;;;;;;5.38;3.15;;;;;;;1.76;92.24;103608.97;5073431;28;20023;-88
2022/01/14 10:36:50;;;;;;;6.32;3.05;;;;;;;1.77;92.08;103606.50;5073569;28;20017;-88
2022/01/14 10:39:23;;;;;;;6.68;3.28;;;;;;;1.80;92.22;103608.38;5074687;28;20354;-89
2022/01/14 10:41:48;;;;;;;5.60;3.15;;;;;;;1.83;91.92;103594.09;5093414;28;20369;-87
2022/01/14 10:44:24;;;;;;;5.63;3.00;;;;;;;1.88;92.28;103604.66;5081015;28;20020;-88
2022/01/14 10:47:10;;;;;;;7.15;3.45;;;;;;;1.88;92.04;103596.97;5077909;28;20381;-88
2022/01/14 10:49:37;;;;;;;6.88;3.55;;;;;;;1.92;92.66;103596.34;5073383;28;20041;-88
2022/01/14 10:52:27;;;;;;;6.45;3.25;;;;;;;1.93;92.31;103592.13;5080077;28;20023;-87
2022/01/14 10:54:58;;;;;;;5.80;3.00;;;;;;;1.91;92.13;103592.03;5073686;28;20473;-88
2022/01/14 10:57:26;;;;;;;6.25;3.25;;;;;;;1.96;92.25;103597.47;5082478;28;20027;-88
2022/01/14 10:59:56;;;;;;;5.88;3.15;;;;;;;1.98;92.16;103593.31;5081994;28;20393;-87
2022/01/14 11:02:41;;;;;;;5.95;3.05;;;;;;;1.98;92.35;103583.97;5071570;28;20109;-88
2022/01/14 11:05:15;;;;;;;5.68;3.30;;;;;;;2.01;92.15;103578.13;5071632;28;20032;-86
2022/01/14 11:07:55;;;;;;;6.35;3.22;;;;;;;2.00;91.96;103568.69;5071895;28;20062;-89
2022/01/14 11:10:22;;;;;;;6.97;3.30;;;;;;;2.10;92.22;103577.84;5072318;28;20021;-89
2022/01/14 11:12:48;;;;;;;6.80;3.60;;;;;;;2.09;92.25;103571.81;5072399;28;20040;-89
2022/01/14 11:15:14;;;;;;;11.20;4.57;;;;;;;2.12;92.10;103574.59;5072710;28;20443;-89
2022/01/14 11:17:55;;;;;;;8.48;4.22;;;;;;;2.17;92.17;103577.44;5073833;28;20032;-89
2022/01/14 11:23:14;;;;;;;9.38;4.60;;;;;;;2.16;92.06;103574.00;5073585;28;20044;-89
2022/01/14 11:23:15;;;;;;;7.85;4.00;;;;;;;2.22;92.04;103570.03;5049726;28;20029;-87
2022/01/14 11:25:59;;;;;;;8.80;3.83;;;;;;;2.28;92.20;103575.56;5087100;28;20431;-90
2022/01/14 11:28:34;;;;;;;7.78;3.50;;;;;;;2.26;92.08;103570.31;5093723;28;20063;-90
2022/01/14 11:31:00;;;;;;;8.32;3.90;;;;;;;2.30;92.29;103562.06;5093938;28;20048;-88
2022/01/14 11:33:43;;;;;;;6.65;3.30;;;;;;;2.34;91.85;103567.38;5093167;28;20070;-89
2022/01/14 11:36:09;;;;;;;7.18;3.40;;;;;;;2.36;92.06;103576.06;5099966;22;20075;-89
2022/01/14 11:38:46;;;;;;;6.18;3.20;;;;;;;2.39;92.40;103565.97;5093886;28;20031;-89
2022/01/14 11:41:17;;;;;;;5.30;3.13;;;;;;;2.42;91.84;103563.63;5092648;28;20062;-89
2022/01/14 11:43:50;;;;;;;6.68;3.40;;;;;;;2.45;92.07;103576.63;5096865;28;20183;-89
2022/01/14 11:46:35;;;;;;;7.00;3.53;;;;;;;2.49;92.02;103564.88;5097599;28;20472;-90
2022/01/14 11:49:03;;;;;;;7.65;3.60;;;;;;;2.52;91.96;103562.50;5097367;28;20088;-90
2022/01/14 11:51:29;;;;;;;;;;;;;;;2.55;92.20;103563.59;5077685;28;20036;-89
2022/01/14 11:54:06;;;;;;;10.07;4.30;;;;;;;2.56;91.98;103565.38;5077269;28;19938;-89
2022/01/14 11:56:32;;;;;;;12.40;5.50;;;;;;;2.57;92.11;103566.22;5128164;23;20047;-89
2022/01/14 11:59:20;;;;;;;12.15;5.25;;;;;;;2.57;91.63;103545.72;5117973;28;20531;-89